createdAt,value
2023-04-29T00:00:48.916Z,59.68
2023-04-29T00:01:52.833Z,59.65
2023-04-29T00:02:54.711Z,59.51
2023-04-29T00:03:56.505Z,59.46
2023-04-29T00:04:58.565Z,59.36
2023-04-29T00:06:01.364Z,59.34
2023-04-29T00:07:02.952Z,59.16
2023-04-29T00:08:04.936Z,59.20
2023-04-29T00:09:06.333Z,59.27
2023-04-29T00:10:08.229Z,59.22
2023-04-29T00:11:10.900Z,59.31
2023-04-29T00:12:12.443Z,59.28
2023-04-29T00:13:13.895Z,59.28
2023-04-29T00:14:15.859Z,59.31
2023-04-29T00:15:17.820Z,59.29
2023-04-29T00:16:19.974Z,59.25
2023-04-29T00:17:21.348Z,59.30
2023-04-29T00:18:23.053Z,59.26
2023-04-29T00:19:24.563Z,59.25
2023-04-29T00:20:26.088Z,59.24
2023-04-29T00:21:27.858Z,59.23
2023-04-29T00:22:29.358Z,59.17
2023-04-29T00:23:32.475Z,59.17
2023-04-29T00:24:34.250Z,59.25
2023-04-29T00:25:37.624Z,59.18
2023-04-29T00:26:40.736Z,59.16
2023-04-29T00:27:42.222Z,59.12
2023-04-29T00:28:44.425Z,59.20
2023-04-29T00:29:45.899Z,59.24
2023-04-29T00:30:47.469Z,59.28
2023-04-29T00:31:49.458Z,59.32
2023-04-29T00:32:50.971Z,59.27
2023-04-29T00:33:52.629Z,59.34
2023-04-29T00:34:54.119Z,59.36
2023-04-29T00:35:55.838Z,59.40
2023-04-29T00:36:57.365Z,59.36
2023-04-29T00:37:58.774Z,59.37
2023-04-29T00:39:00.282Z,59.37
2023-04-29T00:40:01.903Z,59.36
2023-04-29T00:41:04.198Z,59.33
2023-04-29T00:42:06.114Z,59.33
2023-04-29T00:43:07.539Z,59.45
2023-04-29T00:44:09.583Z,59.51
2023-04-29T00:45:11.303Z,59.45
2023-04-29T00:46:13.090Z,59.48
2023-04-29T00:47:14.525Z,59.47
2023-04-29T00:48:16.497Z,59.45
2023-04-29T00:49:18.909Z,59.48
2023-04-29T00:50:21.295Z,59.48
2023-04-29T00:51:23.784Z,59.53
2023-04-29T00:52:26.946Z,59.52
2023-04-29T00:53:29.073Z,59.55
2023-04-29T00:54:30.582Z,59.63
2023-04-29T00:55:33.548Z,59.60
2023-04-29T00:56:36.984Z,59.60
2023-04-29T00:57:38.744Z,59.63
2023-04-29T00:58:45.067Z,59.68
2023-04-29T00:59:46.704Z,59.66
2023-04-29T01:00:48.909Z,59.69
2023-04-29T01:01:50.689Z,59.72
2023-04-29T01:02:54.176Z,59.70
2023-04-29T01:03:56.891Z,59.64
2023-04-29T01:04:58.584Z,59.66
2023-04-29T01:06:19.474Z,59.68
2023-04-29T01:07:21.016Z,59.57
2023-04-29T01:08:51.963Z,59.44
2023-04-29T01:10:10.063Z,59.48
2023-04-29T01:11:13.007Z,59.56
2023-04-29T01:12:36.464Z,59.70
2023-04-29T01:13:57.885Z,59.63
2023-04-29T01:15:16.853Z,59.62
2023-04-29T01:16:25.054Z,59.66
2023-04-29T01:17:31.073Z,59.69
2023-04-29T01:18:43.493Z,59.76
2023-04-29T01:19:52.454Z,59.78
2023-04-29T01:20:57.715Z,59.82
2023-04-29T01:21:59.445Z,59.86
2023-04-29T01:23:01.130Z,59.93
2023-04-29T01:24:03.594Z,59.90
2023-04-29T01:25:07.952Z,59.90
2023-04-29T01:26:25.737Z,59.93
2023-04-29T01:28:15.938Z,59.89
2023-04-29T01:29:39.027Z,59.95
2023-04-29T01:31:43.244Z,60.15
2023-04-29T01:32:59.661Z,59.90
2023-04-29T01:34:11.870Z,60.02
2023-04-29T01:35:33.787Z,60.17
2023-04-29T01:37:03.788Z,60.20
2023-04-29T01:38:26.046Z,60.18
2023-04-29T01:39:41.110Z,60.31
2023-04-29T01:40:58.973Z,60.40
2023-04-29T01:42:22.022Z,60.60
2023-04-29T01:43:26.401Z,60.94
2023-04-29T01:44:31.268Z,61.32
2023-04-29T01:45:34.272Z,61.55
2023-04-29T01:46:36.562Z,61.40
2023-04-29T01:47:38.611Z,61.27
2023-04-29T01:48:40.499Z,61.30
2023-04-29T01:49:42.271Z,61.65
2023-04-29T01:50:43.912Z,61.84
2023-04-29T01:51:46.885Z,62.31
2023-04-29T01:52:48.493Z,62.30
2023-04-29T01:53:50.015Z,62.31
2023-04-29T01:54:53.168Z,62.79
2023-04-29T01:55:54.848Z,63.47
2023-04-29T01:57:02.768Z,63.95
2023-04-29T01:58:24.633Z,64.07
2023-04-29T01:59:35.781Z,63.84
2023-04-29T02:00:50.792Z,63.16
2023-04-29T02:01:52.571Z,62.86
2023-04-29T02:02:54.551Z,62.25
2023-04-29T02:04:16.399Z,62.90
2023-04-29T02:05:17.891Z,61.77
2023-04-29T02:06:27.375Z,62.15
2023-04-29T02:07:32.450Z,62.06
2023-04-29T02:08:33.974Z,61.62
2023-04-29T02:09:36.170Z,61.05
2023-04-29T02:10:57.248Z,60.97
2023-04-29T02:12:15.088Z,61.86
2023-04-29T02:13:16.730Z,60.13
2023-04-29T02:14:18.507Z,59.33
2023-04-29T02:15:20.564Z,58.49
2023-04-29T02:16:22.778Z,58.12
2023-04-29T02:17:28.929Z,57.69
2023-04-29T02:18:31.679Z,58.34
2023-04-29T02:19:33.614Z,59.11
2023-04-29T02:20:37.495Z,59.67
2023-04-29T02:21:39.914Z,60.23
2023-04-29T02:22:42.025Z,60.36
2023-04-29T02:23:44.269Z,60.51
2023-04-29T02:24:45.896Z,60.99
2023-04-29T02:25:48.609Z,60.52
2023-04-29T02:26:50.147Z,60.39
2023-04-29T02:27:51.612Z,60.70
2023-04-29T02:28:53.159Z,60.71
2023-04-29T02:29:55.805Z,60.65
2023-04-29T02:30:57.481Z,60.89
2023-04-29T02:31:58.939Z,61.23
2023-04-29T02:33:00.575Z,61.53
2023-04-29T02:34:02.115Z,61.89
2023-04-29T02:35:03.800Z,62.14
2023-04-29T02:36:05.371Z,62.16
2023-04-29T02:37:06.945Z,62.34
2023-04-29T02:38:08.372Z,62.58
2023-04-29T02:39:11.514Z,63.10
2023-04-29T02:40:12.967Z,63.45
2023-04-29T02:41:18.075Z,63.43
2023-04-29T02:42:19.647Z,63.37
2023-04-29T02:43:21.576Z,63.21
2023-04-29T02:44:23.050Z,63.07
2023-04-29T02:45:24.516Z,62.82
2023-04-29T02:46:25.900Z,62.69
2023-04-29T02:47:27.496Z,62.64
2023-04-29T02:48:29.561Z,62.51
2023-04-29T02:49:31.043Z,62.18
2023-04-29T02:50:32.607Z,62.35
2023-04-29T02:51:34.257Z,62.36
2023-04-29T02:52:36.161Z,62.07
2023-04-29T02:53:37.594Z,61.84
2023-04-29T02:54:39.355Z,61.70
2023-04-29T02:55:40.901Z,61.59
2023-04-29T02:56:44.012Z,61.44
2023-04-29T02:57:45.568Z,61.27
2023-04-29T02:58:47.159Z,61.21
2023-04-29T02:59:48.686Z,61.09
2023-04-29T03:00:50.284Z,61.15
2023-04-29T03:01:53.916Z,61.15
2023-04-29T03:02:55.899Z,61.09
2023-04-29T03:03:57.978Z,61.11
2023-04-29T03:04:59.631Z,61.05
2023-04-29T03:06:01.079Z,60.86
2023-04-29T03:07:03.882Z,60.70
2023-04-29T03:08:05.431Z,60.85
2023-04-29T03:09:07.056Z,60.99
2023-04-29T03:10:09.056Z,61.09
2023-04-29T03:11:11.105Z,60.80
2023-04-29T03:12:13.079Z,60.60
2023-04-29T03:13:14.733Z,60.46
2023-04-29T03:14:16.636Z,60.46
2023-04-29T03:15:19.556Z,60.46
2023-04-29T03:16:21.418Z,60.54
2023-04-29T03:17:22.841Z,60.82
2023-04-29T03:18:24.484Z,60.74
2023-04-29T03:19:25.921Z,60.54
2023-04-29T03:20:27.525Z,60.44
2023-04-29T03:21:29.241Z,60.37
2023-04-29T03:22:30.992Z,60.37
2023-04-29T03:23:32.441Z,60.41
2023-04-29T03:24:35.044Z,60.33
2023-04-29T03:25:36.570Z,60.19
2023-04-29T03:26:38.012Z,60.14
2023-04-29T03:27:39.524Z,60.12
2023-04-29T03:28:41.817Z,60.01
2023-04-29T03:29:43.219Z,59.96
2023-04-29T03:30:45.101Z,59.97
2023-04-29T03:31:46.980Z,59.90
2023-04-29T03:32:48.917Z,59.95
2023-04-29T03:33:52.752Z,59.92
2023-04-29T03:34:54.674Z,59.94
2023-04-29T03:36:10.563Z,60.01
2023-04-29T03:37:16.925Z,59.75
2023-04-29T03:38:21.006Z,59.95
2023-04-29T03:39:22.803Z,59.67
2023-04-29T03:40:24.469Z,59.54
2023-04-29T03:41:25.953Z,59.19
2023-04-29T03:42:27.728Z,59.17
2023-04-29T03:43:29.300Z,59.21
2023-04-29T03:44:31.134Z,59.62
2023-04-29T03:45:32.835Z,60.25
2023-04-29T03:46:34.616Z,60.81
2023-04-29T03:47:36.714Z,61.26
2023-04-29T03:48:38.236Z,61.68
2023-04-29T03:49:39.678Z,61.91
2023-04-29T03:50:41.565Z,62.25
2023-04-29T03:51:46.505Z,62.90
2023-04-29T03:52:50.006Z,63.16
2023-04-29T03:53:53.775Z,63.18
2023-04-29T03:54:55.497Z,62.92
2023-04-29T03:55:57.043Z,62.69
2023-04-29T03:56:58.589Z,62.23
2023-04-29T03:58:00.126Z,62.16
2023-04-29T03:59:01.766Z,62.08
2023-04-29T04:00:04.548Z,61.93
2023-04-29T04:01:15.495Z,61.83
2023-04-29T04:02:18.962Z,61.76
2023-04-29T04:03:22.076Z,61.67
2023-04-29T04:04:24.303Z,61.54
2023-04-29T04:05:26.209Z,61.32
2023-04-29T04:06:31.616Z,60.86
2023-04-29T04:07:33.425Z,60.29
2023-04-29T04:09:04.933Z,60.39
2023-04-29T04:10:08.707Z,60.17
2023-04-29T04:11:10.344Z,60.10
2023-04-29T04:12:17.118Z,60.14
2023-04-29T04:13:18.754Z,59.85
2023-04-29T04:14:20.155Z,59.97
2023-04-29T04:15:21.985Z,60.29
2023-04-29T04:16:23.517Z,60.29
2023-04-29T04:17:27.018Z,60.29
2023-04-29T04:18:28.484Z,60.11
2023-04-29T04:19:30.520Z,60.25
2023-04-29T04:20:32.037Z,60.31
2023-04-29T04:21:34.901Z,60.52
2023-04-29T04:22:40.403Z,60.38
2023-04-29T04:23:50.637Z,60.60
2023-04-29T04:24:55.206Z,60.96
2023-04-29T04:25:57.461Z,60.32
2023-04-29T04:27:28.482Z,59.96
2023-04-29T04:28:31.601Z,59.33
2023-04-29T04:29:36.417Z,58.29
2023-04-29T04:30:49.212Z,58.21
2023-04-29T04:31:50.730Z,58.61
2023-04-29T04:32:53.064Z,58.60
2023-04-29T04:33:55.416Z,57.86
2023-04-29T04:34:57.335Z,57.86
2023-04-29T04:35:58.757Z,57.52
2023-04-29T04:37:00.827Z,57.95
2023-04-29T04:38:02.383Z,57.81
2023-04-29T04:39:03.874Z,57.72
2023-04-29T04:40:07.055Z,57.41
2023-04-29T04:41:11.626Z,57.67
2023-04-29T04:42:14.019Z,57.67
2023-04-29T04:43:18.333Z,57.58
2023-04-29T04:44:20.212Z,57.75
2023-04-29T04:45:41.915Z,58.23
2023-04-29T04:46:43.658Z,58.47
2023-04-29T04:47:50.594Z,58.30
2023-04-29T04:48:56.361Z,58.05
2023-04-29T04:49:57.750Z,58.44
2023-04-29T04:50:59.359Z,58.77
2023-04-29T04:52:00.971Z,59.31
2023-04-29T04:53:02.967Z,59.18
2023-04-29T04:54:15.746Z,58.71
2023-04-29T04:55:17.298Z,59.20
2023-04-29T04:56:21.359Z,58.50
2023-04-29T04:57:22.907Z,58.44
2023-04-29T04:58:25.972Z,58.07
2023-04-29T04:59:28.040Z,57.80
2023-04-29T05:00:29.619Z,58.03
2023-04-29T05:01:31.150Z,57.73
2023-04-29T05:02:32.678Z,57.53
2023-04-29T05:03:34.504Z,57.12
2023-04-29T05:04:36.562Z,57.22
2023-04-29T05:05:38.352Z,56.88
2023-04-29T05:06:40.022Z,56.69
2023-04-29T05:07:41.533Z,56.73
2023-04-29T05:08:43.336Z,56.63
2023-04-29T05:09:44.855Z,56.58
2023-04-29T05:10:46.495Z,56.69
2023-04-29T05:11:48.002Z,56.63
2023-04-29T05:12:51.331Z,56.69
2023-04-29T05:13:53.728Z,56.84
2023-04-29T05:14:55.681Z,56.56
2023-04-29T05:15:57.134Z,56.52
2023-04-29T05:17:01.469Z,56.33
2023-04-29T05:18:03.513Z,56.45
2023-04-29T05:19:05.445Z,56.63
2023-04-29T05:20:10.333Z,56.95
2023-04-29T05:21:12.513Z,57.03
2023-04-29T05:22:13.981Z,57.35
2023-04-29T05:23:16.039Z,57.50
2023-04-29T05:24:18.164Z,57.74
2023-04-29T05:25:20.353Z,57.72
2023-04-29T05:26:22.573Z,57.37
2023-04-29T05:27:25.014Z,57.59
2023-04-29T05:28:28.205Z,57.75
2023-04-29T05:29:30.465Z,58.09
2023-04-29T05:30:34.511Z,57.78
2023-04-29T05:31:36.824Z,57.93
2023-04-29T05:32:38.895Z,57.54
2023-04-29T05:33:41.473Z,57.40
2023-04-29T05:34:43.857Z,56.88
2023-04-29T05:35:45.762Z,56.59
2023-04-29T05:36:47.417Z,56.82
2023-04-29T05:37:49.024Z,57.22
2023-04-29T05:38:59.493Z,56.82
2023-04-29T05:40:01.028Z,56.62
2023-04-29T05:41:03.134Z,56.77
2023-04-29T05:42:17.709Z,56.14
2023-04-29T05:43:23.580Z,56.11
2023-04-29T05:44:26.656Z,56.31
2023-04-29T05:45:28.413Z,56.65
2023-04-29T05:46:29.815Z,56.51
2023-04-29T05:47:31.804Z,57.23
2023-04-29T05:48:33.281Z,57.06
2023-04-29T05:49:35.058Z,56.56
2023-04-29T05:50:38.335Z,56.60
2023-04-29T05:51:39.989Z,56.66
2023-04-29T05:52:41.528Z,57.12
2023-04-29T05:53:43.881Z,57.22
2023-04-29T05:54:45.396Z,57.21
2023-04-29T05:55:48.320Z,57.04
2023-04-29T05:56:51.498Z,57.03
2023-04-29T05:57:53.248Z,56.97
2023-04-29T05:58:54.691Z,56.60
2023-04-29T05:59:56.970Z,55.92
2023-04-29T06:00:59.954Z,56.06
2023-04-29T06:02:01.624Z,55.78
2023-04-29T06:03:03.667Z,56.08
2023-04-29T06:04:05.618Z,56.25
2023-04-29T06:05:20.539Z,55.69
2023-04-29T06:06:43.001Z,55.72
2023-04-29T06:07:51.761Z,55.03
2023-04-29T06:09:13.348Z,55.00
2023-04-29T06:10:19.417Z,55.52
2023-04-29T06:11:21.689Z,55.37
2023-04-29T06:12:23.118Z,55.56
2023-04-29T06:13:25.604Z,55.65
2023-04-29T06:14:26.998Z,55.18
2023-04-29T06:15:28.681Z,54.15
2023-04-29T06:16:31.516Z,53.50
2023-04-29T06:17:33.033Z,53.67
2023-04-29T06:18:34.558Z,53.93
2023-04-29T06:19:36.153Z,54.02
2023-04-29T06:20:37.760Z,54.23
2023-04-29T06:21:39.397Z,54.74
2023-04-29T06:22:41.007Z,54.89
2023-04-29T06:23:42.579Z,54.25
2023-04-29T06:24:50.395Z,54.61
2023-04-29T06:26:00.801Z,54.21
2023-04-29T06:27:03.612Z,54.33
2023-04-29T06:28:05.235Z,54.51
2023-04-29T06:29:07.006Z,54.91
2023-04-29T06:30:10.885Z,54.28
2023-04-29T06:31:13.407Z,54.21
2023-04-29T06:32:15.780Z,53.73
2023-04-29T06:33:17.889Z,53.58
2023-04-29T06:34:19.365Z,54.17
2023-04-29T06:35:40.503Z,53.95
2023-04-29T06:37:07.973Z,52.98
2023-04-29T06:38:27.888Z,53.88
2023-04-29T06:39:49.651Z,53.23
2023-04-29T06:41:16.519Z,53.43
2023-04-29T06:42:27.078Z,54.06
2023-04-29T06:44:00.618Z,53.65
2023-04-29T06:45:02.086Z,53.24
2023-04-29T06:46:28.568Z,53.63
2023-04-29T06:47:37.212Z,53.24
2023-04-29T06:48:42.332Z,53.04
2023-04-29T06:49:43.882Z,52.91
2023-04-29T06:50:52.928Z,51.76
2023-04-29T06:51:54.349Z,51.79
2023-04-29T06:52:55.879Z,51.98
2023-04-29T06:53:57.305Z,51.98
2023-04-29T06:54:59.218Z,51.81
2023-04-29T06:56:00.753Z,52.11
2023-04-29T06:57:02.404Z,51.60
2023-04-29T06:58:04.006Z,51.56
2023-04-29T06:59:05.612Z,52.42
2023-04-29T07:00:10.102Z,52.31
2023-04-29T07:01:11.912Z,51.76
2023-04-29T07:02:13.514Z,52.25
2023-04-29T07:03:16.611Z,51.74
2023-04-29T07:04:18.124Z,51.34
2023-04-29T07:05:22.636Z,51.37
2023-04-29T07:06:24.138Z,51.19
2023-04-29T07:07:27.450Z,51.40
2023-04-29T07:08:29.551Z,51.50
2023-04-29T07:09:31.010Z,51.43
2023-04-29T07:10:32.513Z,51.56
2023-04-29T07:11:34.394Z,51.61
2023-04-29T07:12:36.589Z,51.92
2023-04-29T07:13:38.081Z,52.16
2023-04-29T07:14:41.191Z,52.28
2023-04-29T07:15:42.910Z,51.94
2023-04-29T07:16:44.573Z,52.03
2023-04-29T07:17:46.038Z,52.03
2023-04-29T07:18:48.758Z,51.19
2023-04-29T07:19:51.043Z,51.81
2023-04-29T07:20:52.720Z,51.19
2023-04-29T07:21:54.309Z,51.06
2023-04-29T07:22:55.872Z,51.65
2023-04-29T07:24:00.030Z,51.70
2023-04-29T07:25:01.571Z,51.06
2023-04-29T07:26:13.445Z,51.71
2023-04-29T07:27:17.450Z,51.61
2023-04-29T07:28:18.987Z,51.11
2023-04-29T07:29:20.433Z,51.37
2023-04-29T07:30:22.711Z,51.54
2023-04-29T07:31:24.247Z,51.42
2023-04-29T07:32:26.400Z,51.61
2023-04-29T07:33:27.994Z,51.60
2023-04-29T07:34:29.563Z,51.75
2023-04-29T07:35:31.005Z,51.70
2023-04-29T07:36:32.718Z,52.24
2023-04-29T07:37:34.337Z,52.07
2023-04-29T07:38:36.420Z,51.91
2023-04-29T07:39:37.890Z,51.70
2023-04-29T07:40:41.320Z,51.79
2023-04-29T07:41:43.181Z,51.61
2023-04-29T07:42:44.701Z,51.83
2023-04-29T07:43:46.713Z,51.62
2023-04-29T07:44:48.635Z,51.52
2023-04-29T07:45:50.513Z,51.48
2023-04-29T07:46:51.954Z,51.59
2023-04-29T07:47:53.448Z,52.03
2023-04-29T07:48:55.356Z,51.64
2023-04-29T07:49:58.040Z,51.29
2023-04-29T07:50:59.991Z,50.66
2023-04-29T07:52:01.840Z,50.65
2023-04-29T07:53:03.508Z,50.11
2023-04-29T07:54:05.126Z,50.35
2023-04-29T07:55:06.884Z,50.48
2023-04-29T07:56:08.974Z,50.65
2023-04-29T07:57:10.385Z,50.98
2023-04-29T07:58:11.861Z,51.35
2023-04-29T07:59:14.025Z,51.29
2023-04-29T08:00:16.360Z,51.29
2023-04-29T08:01:17.972Z,51.34
2023-04-29T08:02:20.057Z,51.13
2023-04-29T08:03:22.379Z,51.06
2023-04-29T08:04:24.201Z,50.75
2023-04-29T08:05:46.028Z,51.07
2023-04-29T08:06:51.345Z,51.12
2023-04-29T08:07:52.778Z,50.99
2023-04-29T08:08:55.862Z,50.97
2023-04-29T08:09:57.312Z,51.03
2023-04-29T08:10:58.916Z,51.26
2023-04-29T08:12:01.449Z,51.58
2023-04-29T08:13:03.057Z,51.40
2023-04-29T08:14:04.479Z,51.47
2023-04-29T08:15:07.803Z,51.88
2023-04-29T08:16:11.968Z,52.34
2023-04-29T08:17:13.982Z,52.64
2023-04-29T08:18:15.938Z,52.99
2023-04-29T08:19:17.353Z,51.86
2023-04-29T08:20:19.129Z,51.75
2023-04-29T08:21:20.615Z,51.38
2023-04-29T08:22:22.071Z,51.50
2023-04-29T08:23:23.531Z,51.98
2023-04-29T08:24:25.175Z,51.82
2023-04-29T08:25:26.718Z,51.74
2023-04-29T08:26:28.177Z,51.45
2023-04-29T08:27:29.815Z,51.29
2023-04-29T08:28:31.592Z,51.55
2023-04-29T08:29:33.669Z,51.24
2023-04-29T08:30:38.409Z,51.40
2023-04-29T08:31:40.345Z,51.24
2023-04-29T08:32:41.997Z,52.05
2023-04-29T08:33:43.437Z,51.65
2023-04-29T08:34:44.863Z,51.62
2023-04-29T08:35:46.424Z,51.10
2023-04-29T08:36:48.415Z,50.65
2023-04-29T08:37:49.830Z,50.98
2023-04-29T08:38:52.496Z,51.06
2023-04-29T08:39:53.930Z,51.00
2023-04-29T08:40:55.784Z,51.43
2023-04-29T08:41:58.677Z,51.63
2023-04-29T08:43:00.642Z,51.64
2023-04-29T08:44:02.048Z,51.50
2023-04-29T08:45:04.230Z,51.04
2023-04-29T08:46:07.107Z,51.40
2023-04-29T08:47:09.242Z,51.16
2023-04-29T08:48:11.387Z,50.61
2023-04-29T08:49:13.604Z,50.77
2023-04-29T08:50:15.287Z,50.94
2023-04-29T08:51:16.871Z,50.83
2023-04-29T08:52:18.319Z,50.59
2023-04-29T08:53:20.008Z,49.98
2023-04-29T08:54:21.439Z,50.01
2023-04-29T08:55:24.021Z,50.67
2023-04-29T08:56:27.950Z,49.02
2023-04-29T08:57:30.475Z,49.51
2023-04-29T08:58:33.955Z,49.35
2023-04-29T08:59:36.763Z,48.21
2023-04-29T09:00:39.969Z,47.88
2023-04-29T09:01:43.324Z,47.90
2023-04-29T09:02:50.249Z,47.55
2023-04-29T09:04:09.043Z,47.80
2023-04-29T09:05:10.811Z,47.81
2023-04-29T09:06:13.633Z,48.26
2023-04-29T09:07:16.653Z,48.10
2023-04-29T09:08:18.104Z,48.79
2023-04-29T09:09:21.067Z,48.81
2023-04-29T09:10:23.159Z,48.74
2023-04-29T09:11:26.510Z,49.20
2023-04-29T09:12:29.772Z,48.92
2023-04-29T09:13:32.036Z,49.37
2023-04-29T09:14:33.770Z,49.01
2023-04-29T09:15:42.139Z,48.78
2023-04-29T09:16:46.814Z,49.37
2023-04-29T09:17:48.608Z,49.72
2023-04-29T09:18:51.405Z,50.32
2023-04-29T09:19:52.816Z,49.28
2023-04-29T09:20:54.200Z,49.07
2023-04-29T09:21:56.347Z,49.01
2023-04-29T09:23:03.673Z,48.22
2023-04-29T09:24:05.239Z,47.52
2023-04-29T09:25:13.458Z,48.10
2023-04-29T09:26:15.608Z,47.70
2023-04-29T09:27:27.602Z,48.03
2023-04-29T09:28:29.342Z,48.08
2023-04-29T09:29:32.311Z,48.77
2023-04-29T09:30:46.111Z,47.71
2023-04-29T09:31:48.781Z,47.07
2023-04-29T09:33:06.006Z,47.48
2023-04-29T09:34:08.269Z,47.13
2023-04-29T09:35:24.226Z,47.71
2023-04-29T09:36:38.706Z,47.31
2023-04-29T09:37:41.184Z,47.89
2023-04-29T09:39:13.033Z,47.37
2023-04-29T09:40:31.025Z,47.54
2023-04-29T09:41:32.642Z,47.25
2023-04-29T09:42:42.916Z,47.54
2023-04-29T09:43:44.236Z,46.98
2023-04-29T09:44:45.848Z,47.65
2023-04-29T09:45:48.175Z,47.55
2023-04-29T09:47:02.290Z,47.12
2023-04-29T09:48:05.627Z,47.32
2023-04-29T09:49:25.387Z,47.58
2023-04-29T09:50:28.060Z,48.01
2023-04-29T09:51:31.715Z,48.00
2023-04-29T09:52:41.112Z,47.77
2023-04-29T09:53:42.594Z,47.67
2023-04-29T09:54:44.888Z,46.37
2023-04-29T09:55:52.631Z,45.01
2023-04-29T09:56:55.541Z,45.59
2023-04-29T09:57:57.876Z,45.18
2023-04-29T09:59:08.720Z,44.54
2023-04-29T10:00:11.516Z,45.24
2023-04-29T10:01:18.963Z,45.54
2023-04-29T10:02:22.226Z,45.36
2023-04-29T10:03:24.222Z,45.91
2023-04-29T10:04:27.408Z,46.60
2023-04-29T10:05:30.046Z,46.07
2023-04-29T10:06:31.773Z,46.57
2023-04-29T10:07:33.512Z,46.56
2023-04-29T10:08:35.228Z,46.82
2023-04-29T10:09:39.260Z,46.88
2023-04-29T10:10:41.073Z,47.16
2023-04-29T10:11:50.121Z,46.88
2023-04-29T10:12:54.736Z,46.66
2023-04-29T10:13:57.911Z,46.22
2023-04-29T10:15:06.627Z,44.74
2023-04-29T10:27:07.166Z,44.90
2023-04-29T10:28:13.898Z,44.89
2023-04-29T10:29:16.911Z,45.33
2023-04-29T10:30:21.054Z,45.94
2023-04-29T10:31:25.949Z,46.13
2023-04-29T10:32:30.525Z,45.57
2023-04-29T10:33:36.829Z,45.67
2023-04-29T10:34:39.844Z,44.67
2023-04-29T10:35:44.392Z,44.50
2023-04-29T10:36:46.581Z,44.06
2023-04-29T10:37:49.110Z,43.42
2023-04-29T10:38:55.262Z,43.52
2023-04-29T10:40:27.222Z,43.73
2023-04-29T10:41:45.587Z,43.93
2023-04-29T10:42:49.962Z,44.42
2023-04-29T10:43:55.376Z,44.73
2023-04-29T10:45:17.712Z,44.73
2023-04-29T10:46:20.623Z,44.84
2023-04-29T10:47:22.236Z,44.61
2023-04-29T10:48:25.037Z,44.89
2023-04-29T10:49:33.661Z,45.03
2023-04-29T10:50:48.138Z,45.37
2023-04-29T10:51:49.684Z,45.52
2023-04-29T10:52:51.691Z,45.60
2023-04-29T10:54:06.452Z,45.86
2023-04-29T10:55:08.061Z,46.30
2023-04-29T10:56:12.880Z,46.53
2023-04-29T10:57:30.230Z,46.34
2023-04-29T10:58:37.945Z,46.27
2023-04-29T10:59:39.615Z,46.27
2023-04-29T11:00:41.094Z,46.57
2023-04-29T11:01:49.710Z,46.70
2023-04-29T11:02:53.309Z,46.81
2023-04-29T11:03:59.486Z,47.23
2023-04-29T11:05:11.638Z,47.50
2023-04-29T11:06:13.555Z,48.00
2023-04-29T11:07:33.119Z,48.46
2023-04-29T11:08:39.153Z,48.85
2023-04-29T11:09:40.686Z,49.13
2023-04-29T11:10:43.373Z,49.27
2023-04-29T11:11:55.734Z,49.66
2023-04-29T11:13:20.317Z,49.96
2023-04-29T11:14:42.954Z,51.11
2023-04-29T11:15:44.439Z,51.42
2023-04-29T11:16:48.663Z,52.04
2023-04-29T11:17:50.314Z,52.51
2023-04-29T11:19:08.869Z,53.09
2023-04-29T11:20:13.382Z,52.34
2023-04-29T11:21:15.090Z,52.46
2023-04-29T11:22:23.374Z,51.99
2023-04-29T11:23:26.161Z,53.26
2023-04-29T11:24:29.054Z,53.17
2023-04-29T11:25:30.544Z,53.21
2023-04-29T11:26:34.687Z,53.13
2023-04-29T11:27:39.263Z,52.91
2023-04-29T11:28:41.956Z,52.95
2023-04-29T11:29:45.074Z,52.63
2023-04-29T11:30:46.836Z,52.85
2023-04-29T11:31:48.361Z,52.74
2023-04-29T11:32:51.288Z,52.65
2023-04-29T11:33:52.859Z,52.83
2023-04-29T11:34:54.739Z,52.85
2023-04-29T11:35:57.003Z,52.87
2023-04-29T11:36:58.758Z,52.64
2023-04-29T11:38:00.199Z,52.86
2023-04-29T11:39:03.338Z,52.73
2023-04-29T11:40:06.346Z,52.80
2023-04-29T11:41:08.280Z,52.86
2023-04-29T11:42:10.110Z,52.63
2023-04-29T11:43:17.466Z,52.69
2023-04-29T11:44:24.528Z,52.79
2023-04-29T11:45:27.398Z,52.52
2023-04-29T11:46:32.078Z,52.66
2023-04-29T11:47:33.782Z,52.69
2023-04-29T11:48:35.287Z,52.69
2023-04-29T11:49:39.591Z,52.60
2023-04-29T11:50:41.706Z,52.70
2023-04-29T11:51:43.117Z,52.68
2023-04-29T11:52:46.307Z,52.79
2023-04-29T11:53:47.728Z,52.75
2023-04-29T11:54:49.197Z,52.58
2023-04-29T11:55:54.005Z,52.69
2023-04-29T11:56:57.292Z,52.33
2023-04-29T11:57:59.333Z,51.99
2023-04-29T11:59:01.377Z,51.65
2023-04-29T12:00:05.139Z,51.31
2023-04-29T12:01:09.020Z,50.66
2023-04-29T12:02:12.794Z,50.66
2023-04-29T12:03:16.229Z,50.64
2023-04-29T12:04:19.090Z,50.85
2023-04-29T12:05:20.936Z,50.77
2023-04-29T12:06:26.952Z,50.83
2023-04-29T12:07:28.446Z,50.66
2023-04-29T12:08:31.254Z,50.46
2023-04-29T12:09:42.502Z,50.27
2023-04-29T12:10:43.989Z,49.90
2023-04-29T12:11:49.693Z,49.88
2023-04-29T12:12:51.601Z,49.53
2023-04-29T12:13:54.397Z,49.51
2023-04-29T12:14:56.212Z,49.61
2023-04-29T12:15:58.682Z,49.59
2023-04-29T12:17:01.101Z,49.03
2023-04-29T12:18:02.694Z,48.96
2023-04-29T12:19:04.734Z,48.89
2023-04-29T12:20:10.851Z,48.97
2023-04-29T12:21:12.540Z,48.71
2023-04-29T12:22:14.048Z,48.60
2023-04-29T12:23:18.255Z,48.55
2023-04-29T12:24:24.129Z,48.77
2023-04-29T12:25:27.489Z,48.70
2023-04-29T12:26:30.796Z,48.42
2023-04-29T12:27:33.754Z,48.76
2023-04-29T12:28:35.641Z,48.83
2023-04-29T12:29:38.199Z,49.06
2023-04-29T12:30:40.037Z,48.91
2023-04-29T12:31:42.793Z,48.82
2023-04-29T12:32:44.589Z,48.38
2023-04-29T12:33:46.214Z,48.67
2023-04-29T12:34:50.333Z,48.85
2023-04-29T12:35:54.162Z,49.13
2023-04-29T12:36:57.677Z,49.19
2023-04-29T12:37:59.370Z,49.16
2023-04-29T12:39:00.952Z,49.23
2023-04-29T12:40:03.260Z,49.03
2023-04-29T12:41:07.133Z,49.10
2023-04-29T12:42:16.225Z,48.65
2023-04-29T12:43:18.231Z,48.76
2023-04-29T12:44:19.930Z,48.98
2023-04-29T12:45:30.210Z,49.18
2023-04-29T12:46:36.518Z,49.43
2023-04-29T12:47:38.654Z,49.63
2023-04-29T12:48:41.553Z,49.68
2023-04-29T12:49:47.411Z,50.03
2023-04-29T12:50:51.053Z,50.22
2023-04-29T12:51:53.018Z,50.33
2023-04-29T12:52:54.600Z,50.34
2023-04-29T12:53:56.151Z,50.55
2023-04-29T12:54:57.838Z,50.65
2023-04-29T12:55:59.969Z,50.78
2023-04-29T12:57:02.189Z,51.23
2023-04-29T12:58:04.576Z,51.44
2023-04-29T12:59:07.462Z,51.56
2023-04-29T13:00:09.716Z,51.57
2023-04-29T13:01:12.015Z,51.77
2023-04-29T13:02:13.483Z,52.01
2023-04-29T13:03:15.318Z,52.23
2023-04-29T13:04:16.890Z,52.63
2023-04-29T13:05:18.452Z,52.63
2023-04-29T13:06:20.096Z,52.74
2023-04-29T13:07:21.554Z,52.81
2023-04-29T13:08:23.062Z,52.77
2023-04-29T13:09:24.613Z,53.10
2023-04-29T13:10:27.703Z,52.88
2023-04-29T13:11:34.098Z,53.02
2023-04-29T13:12:36.484Z,53.14
2023-04-29T13:13:38.059Z,53.12
2023-04-29T13:14:39.494Z,53.39
2023-04-29T13:15:40.951Z,53.26
2023-04-29T13:16:42.526Z,53.34
2023-04-29T13:17:45.129Z,53.29
2023-04-29T13:18:58.933Z,53.24
2023-04-29T13:20:07.166Z,53.16
2023-04-29T13:21:08.566Z,53.41
2023-04-29T13:22:10.410Z,53.64
2023-04-29T13:23:12.405Z,53.84
2023-04-29T13:24:13.952Z,53.88
2023-04-29T13:25:15.790Z,53.92
2023-04-29T13:26:17.828Z,53.93
2023-04-29T13:27:19.473Z,53.92
2023-04-29T13:28:22.004Z,53.85
2023-04-29T13:29:24.066Z,53.89
2023-04-29T13:30:25.598Z,54.03
2023-04-29T13:31:27.430Z,53.91
2023-04-29T13:32:41.959Z,53.98
2023-04-29T13:33:48.271Z,54.03
2023-04-29T13:34:50.651Z,53.81
2023-04-29T13:35:52.088Z,53.87
2023-04-29T13:36:53.505Z,53.93
2023-04-29T13:37:55.838Z,54.04
2023-04-29T13:38:57.411Z,54.16
2023-04-29T13:39:59.203Z,54.16
2023-04-29T13:41:00.773Z,54.30
2023-04-29T13:42:03.259Z,54.61
2023-04-29T13:43:07.202Z,54.59
2023-04-29T13:44:23.727Z,54.70
2023-04-29T13:45:39.023Z,54.92
2023-04-29T13:46:41.566Z,54.84
2023-04-29T13:48:03.122Z,54.75
2023-04-29T13:49:29.119Z,54.90
2023-04-29T13:51:05.007Z,55.09
2023-04-29T13:52:32.354Z,55.25
2023-04-29T13:53:41.044Z,55.08
2023-04-29T13:54:53.591Z,54.85
2023-04-29T13:57:55.188Z,55.15
2023-04-29T14:01:10.360Z,55.01
2023-04-29T14:03:06.887Z,55.21
2023-04-29T14:04:08.649Z,55.25
2023-04-29T14:05:10.553Z,55.38
2023-04-29T14:06:12.431Z,55.47